Time;durP1;ratioP1;P1;durP2;ratioP2;P2;SDS_P1;SDS_P2;PMS_P1;PMS_P2;Temp;Humidity;BMP_temperature;BMP_pressure;BME280_temperature;BME280_humidity;BME280_pressure;Samples;Min_cycle;Max_cycle;Signal;HPM_P1;HPM_P2
2023/06/17 00:00:28;;;;;;;12.93;11.60;;;13.90;99.90;;;;;;7378290;19;20018;-87
2023/06/17 00:02:57;;;;;;;13.23;11.32;;;13.90;99.90;;;;;;7380388;19;20018;-88
2023/06/17 00:05:26;;;;;;;12.50;11.35;;;13.80;99.90;;;;;;7379904;19;20976;-87
2023/06/17 00:07:53;;;;;;;13.57;11.65;;;13.70;99.90;;;;;;7379883;19;20015;-87
2023/06/17 00:10:20;;;;;;;14.18;12.63;;;13.70;99.90;;;;;;7374570;19;20029;-88
2023/06/17 00:12:48;;;;;;;13.93;12.63;;;13.70;99.90;;;;;;7377314;19;20022;-88
2023/06/17 00:15:16;;;;;;;14.02;12.73;;;13.70;99.90;;;;;;7379391;19;20607;-87
2023/06/17 00:17:44;;;;;;;15.48;12.18;;;13.70;99.90;;;;;;7380056;19;20117;-88
2023/06/17 00:20:12;;;;;;;13.82;12.50;;;13.60;99.90;;;;;;7372677;19;20070;-88
2023/06/17 00:22:39;;;;;;;15.20;11.93;;;13.70;99.90;;;;;;7377129;19;20010;-87
2023/06/17 00:25:07;;;;;;;15.40;13.77;;;13.70;99.90;;;;;;7377436;19;20046;-88
2023/06/17 00:27:34;;;;;;;15.35;12.30;;;13.70;99.90;;;;;;7378144;19;20851;-88
2023/06/17 00:30:01;;;;;;;15.82;13.10;;;13.70;99.90;;;;;;7377415;19;20022;-88
2023/06/17 00:32:32;;;;;;;15.53;13.17;;;13.70;99.90;;;;;;7381440;19;20019;-87
2023/06/17 00:34:58;;;;;;;15.98;14.27;;;13.70;99.90;;;;;;7379342;19;20282;-88
2023/06/17 00:37:25;;;;;;;16.90;14.63;;;13.70;99.90;;;;;;7381898;19;20015;-88
2023/06/17 00:39:51;;;;;;;15.00;13.73;;;13.70;99.90;;;;;;7382751;19;20014;-88
2023/06/17 00:42:18;;;;;;;15.13;13.63;;;13.70;99.90;;;;;;7381394;19;20018;-87
2023/06/17 00:44:46;;;;;;;15.90;14.20;;;13.70;99.90;;;;;;7383313;19;20021;-88
2023/06/17 00:47:14;;;;;;;15.02;12.77;;;13.60;99.90;;;;;;7388796;19;20022;-88
2023/06/17 00:49:42;;;;;;;14.00;12.60;;;13.50;99.90;;;;;;7381493;19;20621;-88
2023/06/17 00:52:11;;;;;;;13.82;12.27;;;13.50;99.90;;;;;;7383221;19;20023;-88
2023/06/17 00:54:40;;;;;;;15.15;13.00;;;13.50;99.90;;;;;;7381534;19;20015;-88
2023/06/17 00:57:13;;;;;;;15.20;13.60;;;13.50;99.90;;;;;;7379905;19;20022;-88
2023/06/17 00:59:42;;;;;;;14.32;13.02;;;13.50;99.90;;;;;;7382172;19;20011;-88
2023/06/17 01:02:11;;;;;;;16.27;14.40;;;13.50;99.90;;;;;;7380276;19;20022;-88
2023/06/17 01:04:43;;;;;;;15.88;14.18;;;13.40;99.90;;;;;;7375664;19;20025;-88
2023/06/17 01:07:23;;;;;;;17.80;15.23;;;13.50;99.90;;;;;;7373545;19;20553;-88
2023/06/17 01:10:00;;;;;;;17.50;15.73;;;13.50;99.90;;;;;;7375489;19;20087;-88
2023/06/17 01:12:28;;;;;;;18.27;16.58;;;13.50;99.90;;;;;;7378126;19;20378;-89
2023/06/17 01:14:57;;;;;;;17.60;16.02;;;13.60;99.90;;;;;;7379466;19;20022;-88
2023/06/17 01:17:30;;;;;;;18.10;16.45;;;13.70;99.90;;;;;;7374755;19;20086;-88
2023/06/17 01:19:57;;;;;;;18.88;16.92;;;13.80;99.90;;;;;;7377498;19;20026;-88
2023/06/17 01:22:26;;;;;;;19.90;18.00;;;13.90;99.90;;;;;;7377198;19;20070;-89
2023/06/17 01:24:56;;;;;;;21.83;18.63;;;14.00;99.90;;;;;;7378795;19;20645;-87
2023/06/17 01:27:23;;;;;;;22.05;18.00;;;14.10;99.90;;;;;;7375718;19;20181;-88
2023/06/17 01:29:50;;;;;;;22.48;20.15;;;14.10;99.90;;;;;;7371698;19;20045;-86
2023/06/17 01:32:17;;;;;;;24.20;20.38;;;14.20;99.90;;;;;;7376009;19;20028;-87
2023/06/17 01:35:04;;;;;;;21.90;19.80;;;14.30;99.90;;;;;;7375255;19;20025;-87
2023/06/17 01:37:48;;;;;;;21.08;18.92;;;14.40;99.90;;;;;;7373397;19;20839;-88
2023/06/17 01:40:20;;;;;;;23.77;21.35;;;14.50;99.90;;;;;;7371729;19;20294;-87
2023/06/17 01:42:50;;;;;;;21.98;18.83;;;14.60;99.90;;;;;;7371952;19;20485;-87
2023/06/17 01:45:19;;;;;;;21.60;19.55;;;14.60;99.90;;;;;;7370969;19;20021;-88
2023/06/17 01:47:46;;;;;;;21.48;19.15;;;14.70;99.90;;;;;;7372445;19;20047;-87
2023/06/17 01:50:18;;;;;;;23.58;20.75;;;14.70;99.90;;;;;;7374635;19;20085;-89
2023/06/17 01:52:45;;;;;;;22.13;19.77;;;14.70;99.90;;;;;;7371468;19;20022;-88
2023/06/17 01:55:12;;;;;;;23.10;20.60;;;14.70;99.90;;;;;;7381225;19;20022;-88
2023/06/17 01:57:40;;;;;;;24.90;22.42;;;14.80;99.90;;;;;;7383237;19;20020;-89
2023/06/17 02:00:07;;;;;;;25.98;21.67;;;14.90;99.90;;;;;;7380713;19;20019;-87
2023/06/17 02:02:35;;;;;;;28.17;25.20;;;15.00;99.90;;;;;;7377173;19;20090;-87
2023/06/17 02:05:05;;;;;;;29.80;25.55;;;15.00;99.90;;;;;;7370350;19;20792;-87
2023/06/17 02:07:31;;;;;;;32.40;27.40;;;15.00;99.90;;;;;;7380280;19;20025;-88
2023/06/17 02:09:58;;;;;;;26.45;23.75;;;15.10;99.90;;;;;;7379892;19;20109;-88
2023/06/17 02:12:25;;;;;;;29.60;26.55;;;15.20;99.90;;;;;;7380718;19;20022;-88
2023/06/17 02:14:51;;;;;;;34.88;27.80;;;15.10;99.90;;;;;;7378129;19;20037;-88
2023/06/17 02:17:18;;;;;;;29.50;26.38;;;15.10;99.90;;;;;;7381165;19;20014;-87
2023/06/17 02:19:46;;;;;;;29.40;26.55;;;15.10;99.90;;;;;;7380547;19;20406;-88
2023/06/17 02:22:12;;;;;;;29.70;26.65;;;15.20;99.90;;;;;;7379520;19;20131;-88
2023/06/17 02:24:39;;;;;;;31.88;27.52;;;15.10;99.90;;;;;;7381566;19;20035;-89
2023/06/17 02:27:06;;;;;;;32.78;29.23;;;15.10;99.90;;;;;;7380877;19;20022;-88
2023/06/17 02:29:33;;;;;;;35.63;29.52;;;15.00;99.90;;;;;;7380561;19;20052;-88
2023/06/17 02:32:00;;;;;;;33.17;28.35;;;15.00;99.90;;;;;;7377131;19;20018;-88
2023/06/17 02:34:27;;;;;;;35.00;28.02;;;15.00;99.90;;;;;;7380317;19;20077;-87
2023/06/17 02:36:56;;;;;;;36.08;29.65;;;15.00;99.90;;;;;;7380971;19;20442;-88
2023/06/17 02:39:23;;;;;;;34.15;30.55;;;15.10;99.90;;;;;;7380004;19;20021;-87
2023/06/17 02:41:49;;;;;;;34.63;29.40;;;15.00;99.90;;;;;;7379447;19;20442;-90
2023/06/17 02:44:16;;;;;;;32.35;29.15;;;15.00;99.90;;;;;;7381202;19;20029;-87
2023/06/17 02:46:43;;;;;;;32.72;29.35;;;15.00;99.90;;;;;;7375025;19;20014;-87
2023/06/17 02:49:10;;;;;;;32.85;29.27;;;15.00;99.90;;;;;;7369919;19;20405;-87
2023/06/17 02:51:38;;;;;;;33.15;29.73;;;15.00;99.90;;;;;;7378263;19;20457;-86
2023/06/17 02:54:04;;;;;;;34.08;30.50;;;15.10;99.90;;;;;;7374631;19;20082;-87
2023/06/17 02:56:32;;;;;;;32.20;28.10;;;15.00;99.90;;;;;;7374513;19;20031;-86
2023/06/17 02:58:59;;;;;;;32.50;28.40;;;15.10;99.90;;;;;;7377448;19;20026;-87
2023/06/17 03:01:26;;;;;;;33.28;29.02;;;15.10;99.90;;;;;;7375173;19;20022;-87
2023/06/17 03:03:55;;;;;;;33.92;30.02;;;15.10;99.90;;;;;;7382153;19;20019;-87
2023/06/17 03:06:23;;;;;;;31.98;28.65;;;15.00;99.90;;;;;;7373556;19;20032;-86
2023/06/17 03:08:50;;;;;;;36.97;30.55;;;15.00;99.90;;;;;;7376515;19;20018;-87
2023/06/17 03:11:17;;;;;;;35.13;29.40;;;15.00;99.90;;;;;;7375068;19;20060;-89
2023/06/17 03:13:44;;;;;;;35.35;31.48;;;14.90;99.90;;;;;;7378188;19;20111;-86
2023/06/17 03:16:33;;;;;;;33.53;29.98;;;14.90;99.90;;;;;;7376317;19;21033;-88
2023/06/17 03:19:00;;;;;;;33.17;29.77;;;14.90;99.90;;;;;;7377499;19;20026;-87
2023/06/17 03:21:30;;;;;;;39.30;31.05;;;15.00;99.90;;;;;;7378587;19;20023;-87
2023/06/17 03:23:58;;;;;;;34.13;30.35;;;15.00;99.90;;;;;;7377095;19;20511;-87
2023/06/17 03:26:25;;;;;;;35.38;30.67;;;15.00;99.90;;;;;;7375668;19;20021;-87
2023/06/17 03:28:55;;;;;;;31.58;28.25;;;15.00;99.90;;;;;;7374394;19;20049;-86
2023/06/17 03:31:22;;;;;;;36.65;30.77;;;15.00;99.90;;;;;;7378877;19;20019;-88
2023/06/17 03:33:53;;;;;;;33.15;29.58;;;15.00;99.90;;;;;;7374189;19;20089;-87
2023/06/17 03:36:29;;;;;;;37.13;31.98;;;14.90;99.90;;;;;;7369614;19;20024;-88
2023/06/17 03:38:57;;;;;;;36.03;31.70;;;14.90;99.90;;;;;;7373264;19;20494;-88
2023/06/17 03:41:28;;;;;;;36.08;31.92;;;14.90;99.90;;;;;;7377765;19;20051;-89
2023/06/17 03:43:54;;;;;;;37.65;30.83;;;14.90;99.90;;;;;;7377100;19;20015;-88
2023/06/17 03:46:21;;;;;;;36.47;32.63;;;14.90;99.90;;;;;;7378423;19;20025;-88
2023/06/17 03:48:48;;;;;;;39.58;32.75;;;14.90;99.90;;;;;;7377141;19;20022;-88
2023/06/17 03:51:16;;;;;;;34.40;30.80;;;14.90;99.90;;;;;;7378969;19;20379;-89
2023/06/17 03:53:43;;;;;;;33.97;30.48;;;14.90;99.90;;;;;;7375882;19;20028;-87
2023/06/17 03:56:10;;;;;;;34.03;30.33;;;14.90;99.90;;;;;;7373776;19;20036;-88
2023/06/17 03:58:41;;;;;;;34.90;31.30;;;14.90;99.90;;;;;;7373715;19;20482;-88
2023/06/17 04:01:13;;;;;;;37.60;33.55;;;14.80;99.90;;;;;;7377275;19;20018;-89
2023/06/17 04:07:42;;;;;;;37.00;33.03;;;14.90;99.90;;;;;;7356827;19;20014;-80
2023/06/17 04:10:09;;;;;;;37.15;32.65;;;14.90;99.90;;;;;;7358742;19;20042;-80
2023/06/17 04:12:37;;;;;;;36.05;32.22;;;14.90;99.90;;;;;;7377314;19;20026;-80
2023/06/17 04:15:08;;;;;;;34.97;31.17;;;14.90;99.90;;;;;;7379954;19;20021;-80
2023/06/17 04:17:38;;;;;;;38.00;33.53;;;14.90;99.90;;;;;;7376474;19;20393;-80
2023/06/17 04:20:10;;;;;;;36.33;32.80;;;14.90;99.90;;;;;;7377810;19;20673;-80
2023/06/17 04:22:39;;;;;;;33.83;30.08;;;14.90;99.90;;;;;;7376316;19;20022;-79
2023/06/17 04:25:07;;;;;;;35.78;31.95;;;14.90;99.90;;;;;;7376703;19;20026;-80
2023/06/17 04:27:36;;;;;;;36.88;32.50;;;14.90;99.90;;;;;;7379399;19;20390;-79
2023/06/17 04:30:08;;;;;;;34.83;31.13;;;15.00;99.90;;;;;;7378365;19;20027;-81
2023/06/17 04:32:38;;;;;;;38.97;31.45;;;15.00;99.90;;;;;;7376412;19;20017;-80
2023/06/17 04:35:07;;;;;;;36.10;32.58;;;15.00;99.90;;;;;;7376946;19;20022;-80
2023/06/17 04:37:40;;;;;;;36.20;31.88;;;15.00;99.90;;;;;;7372406;19;20121;-80
2023/06/17 04:40:12;;;;;;;33.88;30.67;;;15.00;99.90;;;;;;7378523;19;20093;-80
2023/06/17 04:42:44;;;;;;;36.47;32.50;;;15.10;99.90;;;;;;7373076;19;20025;-79
2023/06/17 04:45:11;;;;;;;;;;;15.10;99.90;;;;;;7377924;19;20333;-79
2023/06/17 04:47:38;;;;;;;34.30;30.88;;;15.10;99.90;;;;;;7374001;19;19926;-79
2023/06/17 04:50:05;;;;;;;33.78;30.40;;;15.20;99.90;;;;;;7369881;19;20014;-79
2023/06/17 04:52:32;;;;;;;34.17;30.58;;;15.20;99.90;;;;;;7365048;19;20372;-79
2023/06/17 04:55:00;;;;;;;41.85;30.65;;;15.20;99.90;;;;;;7371949;19;20090;-80
2023/06/17 04:57:27;;;;;;;34.83;31.23;;;15.30;99.90;;;;;;7373956;19;20018;-80
2023/06/17 04:59:57;;;;;;;36.03;31.58;;;15.10;99.90;;;;;;7372852;19;20025;-80
2023/06/17 05:02:24;;;;;;;33.08;29.88;;;15.10;99.90;;;;;;7375038;19;20026;-80
2023/06/17 05:04:52;;;;;;;34.13;30.70;;;15.10;99.90;;;;;;7372403;19;20015;-79
2023/06/17 05:07:18;;;;;;;34.67;30.60;;;15.20;99.90;;;;;;7375863;19;20026;-79
2023/06/17 05:09:44;;;;;;;38.63;32.05;;;15.20;99.90;;;;;;7376098;19;20538;-79
2023/06/17 05:12:13;;;;;;;37.05;30.65;;;15.30;99.90;;;;;;7374851;19;20023;-79
2023/06/17 05:14:42;;;;;;;34.50;31.08;;;15.30;99.90;;;;;;7369322;19;20059;-80
2023/06/17 05:17:10;;;;;;;32.90;29.30;;;15.30;99.90;;;;;;7374103;19;20023;-80
2023/06/17 05:19:36;;;;;;;32.00;28.80;;;15.40;99.90;;;;;;7374000;19;20014;-79
2023/06/17 05:22:02;;;;;;;34.65;30.98;;;15.40;99.90;;;;;;7375591;19;20015;-79
2023/06/17 05:24:30;;;;;;;33.35;29.95;;;15.30;99.90;;;;;;7371126;19;20383;-80
2023/06/17 05:26:56;;;;;;;31.60;28.33;;;15.30;99.90;;;;;;7374734;19;20014;-80
2023/06/17 05:29:22;;;;;;;31.98;28.33;;;15.20;99.90;;;;;;7370372;19;20022;-81
2023/06/17 05:31:49;;;;;;;32.88;29.58;;;15.30;99.90;;;;;;7370521;19;20031;-80
2023/06/17 05:34:16;;;;;;;32.72;29.15;;;15.40;99.90;;;;;;7363779;19;20011;-80
2023/06/17 05:36:42;;;;;;;35.40;31.15;;;15.30;99.90;;;;;;7373864;19;20033;-79
2023/06/17 05:39:10;;;;;;;35.58;30.55;;;15.30;99.90;;;;;;7375056;19;20022;-82
2023/06/17 05:41:36;;;;;;;31.55;28.25;;;15.40;99.90;;;;;;7371318;19;20052;-80
2023/06/17 05:44:02;;;;;;;32.60;29.27;;;15.50;99.90;;;;;;7370996;19;20019;-81
2023/06/17 05:46:29;;;;;;;33.88;30.40;;;15.40;99.90;;;;;;7368795;19;20040;-81
2023/06/17 05:48:56;;;;;;;33.55;30.25;;;15.50;99.90;;;;;;7374391;19;20017;-81
2023/06/17 05:51:23;;;;;;;31.33;28.33;;;15.50;99.90;;;;;;7370948;19;20023;-81
2023/06/17 05:53:51;;;;;;;32.95;29.00;;;15.70;99.90;;;;;;7373260;19;20011;-81
2023/06/17 05:56:18;;;;;;;32.40;28.98;;;15.80;99.90;;;;;;7371218;19;20034;-81
2023/06/17 05:58:44;;;;;;;33.30;29.70;;;15.80;99.90;;;;;;7371886;19;20085;-81
2023/06/17 06:01:18;;;;;;;32.67;29.40;;;15.80;99.90;;;;;;7369036;19;20015;-80
2023/06/17 06:03:44;;;;;;;34.30;30.70;;;15.50;99.90;;;;;;7370683;19;20454;-79
2023/06/17 06:06:11;;;;;;;30.92;27.98;;;15.80;99.90;;;;;;7369792;19;20020;-84
2023/06/17 06:08:38;;;;;;;44.80;40.55;;;15.80;99.90;;;;;;7373654;19;20022;-81
2023/06/17 06:11:04;;;;;;;32.55;29.17;;;15.90;99.90;;;;;;7370541;19;20051;-81
2023/06/17 06:13:31;;;;;;;31.67;28.58;;;16.00;99.90;;;;;;7374505;19;20848;-81
2023/06/17 06:15:59;;;;;;;32.03;28.65;;;16.00;99.90;;;;;;7376609;19;20025;-80
2023/06/17 06:18:26;;;;;;;31.65;28.33;;;16.00;99.90;;;;;;7373019;19;20094;-81
2023/06/17 06:20:53;;;;;;;31.05;27.75;;;16.10;99.90;;;;;;7373339;19;20587;-80
2023/06/17 06:23:19;;;;;;;29.80;26.70;;;16.20;99.90;;;;;;7373635;19;20014;-80
2023/06/17 06:25:48;;;;;;;30.67;27.00;;;16.10;99.90;;;;;;7371881;19;20015;-81
2023/06/17 06:28:16;;;;;;;30.70;27.60;;;16.00;99.90;;;;;;7375102;19;20470;-81
2023/06/17 06:30:43;;;;;;;28.80;25.92;;;16.10;99.90;;;;;;7374805;19;20021;-80
2023/06/17 06:33:10;;;;;;;29.98;27.17;;;16.20;99.90;;;;;;7369828;19;20486;-82
2023/06/17 06:35:36;;;;;;;44.25;34.83;;;16.30;99.90;;;;;;7367286;19;20401;-80
2023/06/17 06:38:03;;;;;;;35.58;31.90;;;16.30;99.90;;;;;;7373517;19;20018;-81
2023/06/17 06:40:30;;;;;;;37.63;33.70;;;16.40;99.90;;;;;;7372600;19;20014;-81
2023/06/17 06:42:56;;;;;;;38.13;34.33;;;16.50;99.90;;;;;;7382780;19;20034;-81
2023/06/17 06:45:25;;;;;;;34.42;31.00;;;16.70;99.90;;;;;;7379954;19;20018;-80
2023/06/17 06:47:52;;;;;;;35.53;32.00;;;16.80;99.90;;;;;;7382470;19;20018;-80
2023/06/17 06:50:18;;;;;;;32.30;28.77;;;16.90;99.90;;;;;;7382630;19;20533;-81
2023/06/17 06:52:49;;;;;;;25.98;23.52;;;17.00;99.90;;;;;;7382695;19;20014;-81
2023/06/17 06:55:19;;;;;;;27.67;24.88;;;17.00;99.90;;;;;;7376339;19;20051;-81
2023/06/17 06:57:47;;;;;;;27.48;24.83;;;16.90;99.90;;;;;;7382615;19;20048;-81
2023/06/17 07:00:14;;;;;;;29.45;26.45;;;17.10;99.90;;;;;;7380479;19;20074;-81
2023/06/17 07:02:43;;;;;;;29.92;26.92;;;17.20;99.90;;;;;;7378661;19;20023;-81
2023/06/17 07:05:09;;;;;;;28.27;25.10;;;17.10;99.90;;;;;;7376790;19;20019;-81
2023/06/17 07:07:42;;;;;;;27.15;24.63;;;17.20;99.90;;;;;;7380521;19;20022;-81
2023/06/17 07:10:08;;;;;;;31.73;28.52;;;17.30;99.90;;;;;;7376297;19;20019;-81
2023/06/17 07:12:35;;;;;;;28.27;25.30;;;17.40;99.90;;;;;;7378554;19;20034;-81
2023/06/17 07:15:03;;;;;;;31.00;27.83;;;17.60;99.90;;;;;;7375436;19;20110;-81
2023/06/17 07:17:30;;;;;;;26.23;23.55;;;17.70;99.90;;;;;;7378188;19;20063;-83
2023/06/17 07:19:56;;;;;;;26.55;23.67;;;18.00;99.90;;;;;;7377212;19;20023;-80
2023/06/17 07:22:23;;;;;;;26.75;24.13;;;18.10;99.90;;;;;;7376897;19;20022;-81
2023/06/17 07:24:49;;;;;;;25.83;23.30;;;18.30;99.90;;;;;;7376959;19;20026;-80
2023/06/17 07:27:16;;;;;;;25.45;22.92;;;18.50;99.90;;;;;;7379207;19;20907;-81
2023/06/17 07:29:43;;;;;;;26.17;23.40;;;18.60;99.90;;;;;;7374765;19;20026;-82
2023/06/17 07:32:10;;;;;;;25.13;22.58;;;18.80;99.90;;;;;;7368680;19;20028;-82
2023/06/17 07:34:36;;;;;;;25.02;22.48;;;18.90;99.90;;;;;;7371975;19;20023;-82
2023/06/17 07:37:03;;;;;;;23.67;21.27;;;18.90;99.90;;;;;;7371256;19;20960;-81
2023/06/17 07:39:29;;;;;;;25.33;21.42;;;19.10;99.90;;;;;;7376456;19;20374;-83
2023/06/17 07:41:55;;;;;;;23.80;21.35;;;19.10;99.90;;;;;;7373881;19;20447;-81
2023/06/17 07:44:22;;;;;;;24.48;21.50;;;19.60;99.90;;;;;;7375079;19;20018;-81
2023/06/17 07:46:48;;;;;;;23.40;21.10;;;20.40;99.90;;;;;;7372239;19;20554;-79
2023/06/17 07:49:14;;;;;;;20.17;18.08;;;20.50;99.90;;;;;;7373392;19;20021;-79
2023/06/17 07:51:42;;;;;;;33.95;30.70;;;20.60;99.90;;;;;;7375125;19;20022;-82
2023/06/17 07:54:09;;;;;;;22.40;20.40;;;20.20;99.90;;;;;;7370470;19;20513;-79
2023/06/17 07:56:36;;;;;;;20.73;18.88;;;20.50;99.90;;;;;;7374845;19;20520;-80
2023/06/17 07:59:02;;;;;;;21.40;19.25;;;21.10;99.90;;;;;;7378268;19;20014;-79
2023/06/17 08:01:28;;;;;;;21.67;19.48;;;21.10;99.90;;;;;;7380273;19;20019;-79
2023/06/17 08:03:54;;;;;;;20.25;18.02;;;21.20;99.90;;;;;;7376671;19;20018;-79
2023/06/17 08:06:22;;;;;;;20.45;18.52;;;21.40;99.90;;;;;;7374776;19;20021;-80
2023/06/17 08:08:48;;;;;;;20.27;18.15;;;21.60;99.90;;;;;;7376969;19;20025;-79
2023/06/17 08:11:14;;;;;;;20.42;18.48;;;21.60;99.90;;;;;;7374305;19;20022;-79
2023/06/17 08:13:41;;;;;;;20.10;18.10;;;21.80;99.90;;;;;;7367966;19;20500;-80
2023/06/17 08:16:07;;;;;;;18.73;16.83;;;22.30;99.90;;;;;;7367760;19;20108;-80
2023/06/17 08:18:34;;;;;;;18.83;16.83;;;22.70;99.90;;;;;;7374210;19;20018;-80
2023/06/17 08:21:00;;;;;;;19.83;17.10;;;22.90;99.90;;;;;;7376542;19;20018;-79
2023/06/17 08:23:27;;;;;;;19.02;17.20;;;23.10;99.90;;;;;;7373618;19;20026;-81
2023/06/17 08:25:53;;;;;;;19.27;17.35;;;23.40;99.90;;;;;;7372085;19;20029;-80
2023/06/17 08:28:21;;;;;;;18.10;16.23;;;23.10;99.90;;;;;;7377315;19;20769;-80
2023/06/17 08:30:49;;;;;;;17.30;15.63;;;23.10;99.90;;;;;;7371598;19;20014;-80
2023/06/17 08:33:16;;;;;;;18.88;17.08;;;23.40;99.90;;;;;;7368381;19;20095;-82
2023/06/17 08:35:43;;;;;;;18.00;16.40;;;23.10;99.90;;;;;;7374378;19;20026;-81
2023/06/17 08:38:09;;;;;;;17.73;15.43;;;23.00;99.90;;;;;;7371940;19;20130;-82
2023/06/17 08:40:37;;;;;;;16.20;14.52;;;23.50;99.90;;;;;;7377421;19;20018;-81
2023/06/17 08:43:04;;;;;;;15.77;14.35;;;23.70;99.90;;;;;;7373545;19;20030;-81
2023/06/17 08:45:31;;;;;;;18.20;16.45;;;24.00;99.90;;;;;;7376412;19;20035;-82
2023/06/17 08:47:58;;;;;;;17.70;15.13;;;23.70;99.90;;;;;;7375532;19;20019;-82
2023/06/17 08:50:28;;;;;;;15.93;14.25;;;23.90;99.90;;;;;;7374178;19;20026;-82
2023/06/17 08:52:54;;;;;;;15.40;13.95;;;24.30;99.90;;;;;;7376100;19;20098;-80
2023/06/17 08:55:24;;;;;;;15.82;14.25;;;24.80;99.90;;;;;;7376363;19;20042;-81
2023/06/17 08:57:51;;;;;;;15.00;13.60;;;25.00;99.90;;;;;;7373190;19;20021;-81
2023/06/17 09:00:17;;;;;;;16.27;14.23;;;25.10;99.90;;;;;;7377161;19;20391;-81
2023/06/17 09:02:45;;;;;;;18.27;15.07;;;25.40;99.90;;;;;;7376537;19;20849;-82
2023/06/17 09:05:12;;;;;;;16.15;14.38;;;25.00;99.90;;;;;;7373921;19;20051;-81
2023/06/17 09:07:38;;;;;;;16.30;13.98;;;25.10;99.90;;;;;;7374856;19;20014;-81
2023/06/17 09:10:07;;;;;;;15.32;13.80;;;25.10;99.90;;;;;;7373877;19;20109;-81
2023/06/17 09:12:38;;;;;;;14.88;13.40;;;25.30;99.90;;;;;;7374941;19;20614;-81
2023/06/17 09:15:18;;;;;;;15.27;12.98;;;25.60;99.90;;;;;;7370840;19;20021;-81
2023/06/17 09:17:47;;;;;;;14.23;12.82;;;25.80;99.90;;;;;;7376929;19;20139;-81
2023/06/17 09:20:17;;;;;;;14.60;13.15;;;25.90;99.90;;;;;;7373658;19;20018;-81
2023/06/17 09:22:48;;;;;;;14.07;12.73;;;26.50;99.90;;;;;;7377172;19;20030;-81
2023/06/17 09:25:18;;;;;;;14.80;12.82;;;26.60;99.50;;;;;;7373058;19;20019;-81
2023/06/17 09:27:49;;;;;;;14.32;12.82;;;26.80;98.40;;;;;;7374231;19;20041;-81
2023/06/17 09:30:16;;;;;;;13.65;12.27;;;26.90;98.10;;;;;;7367169;19;20019;-81
2023/06/17 09:32:44;;;;;;;14.00;12.70;;;26.80;95.60;;;;;;7376755;19;20509;-81
2023/06/17 09:35:17;;;;;;;14.43;12.27;;;26.90;95.50;;;;;;7371736;19;20023;-81
2023/06/17 09:37:53;;;;;;;13.95;12.48;;;27.10;92.10;;;;;;7377005;19;20025;-81
2023/06/17 09:40:20;;;;;;;12.82;11.63;;;26.60;93.30;;;;;;7375254;19;20019;-80
2023/06/17 09:42:47;;;;;;;12.05;10.90;;;27.10;91.10;;;;;;7371473;19;20021;-81
2023/06/17 09:45:24;;;;;;;12.95;11.63;;;27.70;91.00;;;;;;7375067;19;20022;-81
2023/06/17 09:47:52;;;;;;;15.15;12.63;;;27.40;90.70;;;;;;7374146;19;20106;-81
2023/06/17 09:50:20;;;;;;;11.82;10.65;;;27.70;86.00;;;;;;7373907;19;20570;-80
2023/06/17 09:52:52;;;;;;;13.13;11.63;;;27.60;87.70;;;;;;7373308;19;20482;-81
2023/06/17 09:55:22;;;;;;;12.70;10.52;;;27.80;84.00;;;;;;7371078;19;20429;-80
2023/06/17 09:57:53;;;;;;;13.93;12.18;;;27.90;82.60;;;;;;7373895;19;20034;-81
2023/06/17 10:00:24;;;;;;;10.20;8.90;;;28.00;79.70;;;;;;7374766;19;20023;-81
2023/06/17 10:02:54;;;;;;;12.20;10.15;;;28.20;79.30;;;;;;7373299;19;20490;-81
2023/06/17 10:05:21;;;;;;;12.57;11.27;;;28.10;76.10;;;;;;7375218;19;20025;-81
2023/06/17 10:07:49;;;;;;;11.75;10.52;;;28.60;75.50;;;;;;7372618;19;20455;-81
2023/06/17 10:10:17;;;;;;;15.00;11.18;;;28.80;74.20;;;;;;7373318;19;20025;-81
2023/06/17 10:12:45;;;;;;;11.07;9.90;;;28.70;71.80;;;;;;7372771;19;20490;-81
2023/06/17 10:15:14;;;;;;;11.48;10.18;;;28.80;72.00;;;;;;7372046;19;20014;-81
2023/06/17 10:17:43;;;;;;;13.73;10.32;;;29.10;69.50;;;;;;7377073;19;20061;-81
2023/06/17 10:20:12;;;;;;;10.77;9.65;;;29.00;69.80;;;;;;7379175;19;20022;-81
2023/06/17 10:22:42;;;;;;;10.23;9.00;;;29.30;69.10;;;;;;7372877;19;20022;-82
2023/06/17 10:25:10;;;;;;;11.82;9.63;;;29.20;68.10;;;;;;7381256;19;20022;-81
2023/06/17 10:27:37;;;;;;;11.63;9.55;;;29.20;67.60;;;;;;7379575;19;20026;-80
2023/06/17 10:30:26;;;;;;;11.70;9.07;;;29.00;67.50;;;;;;7380623;19;20082;-80
2023/06/17 10:33:01;;;;;;;10.13;8.93;;;29.50;66.00;;;;;;7379948;19;20086;-80
2023/06/17 10:36:05;;;;;;;9.48;8.48;;;29.20;65.60;;;;;;7382181;19;20019;-80
2023/06/17 10:38:34;;;;;;;14.75;10.80;;;29.50;64.40;;;;;;7380004;19;20022;-80
2023/06/17 10:41:02;;;;;;;12.07;9.25;;;29.80;65.50;;;;;;7381578;19;20498;-80
2023/06/17 10:43:38;;;;;;;10.30;8.77;;;30.00;63.40;;;;;;7381819;19;20023;-80
2023/06/17 10:46:04;;;;;;;12.75;9.95;;;30.40;62.50;;;;;;7383039;19;20029;-80
2023/06/17 10:48:35;;;;;;;12.13;9.35;;;29.80;61.50;;;;;;7379612;19;20362;-79
2023/06/17 10:51:11;;;;;;;9.10;7.65;;;29.50;60.80;;;;;;7379736;19;20022;-79
2023/06/17 10:53:45;;;;;;;9.52;8.60;;;30.20;60.80;;;;;;7380273;19;20015;-79
2023/06/17 10:56:12;;;;;;;21.85;19.88;;;30.40;61.00;;;;;;7381613;19;20018;-79
2023/06/17 10:58:47;;;;;;;10.05;9.05;;;30.60;59.70;;;;;;7377697;19;20495;-80
2023/06/17 11:01:14;;;;;;;10.55;8.60;;;30.60;58.70;;;;;;7375740;19;20029;-81
2023/06/17 11:03:41;;;;;;;9.93;8.57;;;30.50;58.60;;;;;;7379459;19;20025;-81
2023/06/17 11:06:10;;;;;;;11.10;7.80;;;30.40;59.00;;;;;;7376518;19;20018;-80
2023/06/17 11:08:37;;;;;;;9.88;6.95;;;30.20;58.80;;;;;;7374579;19;20036;-80
2023/06/17 11:11:16;;;;;;;9.60;7.15;;;30.60;58.70;;;;;;7373849;19;20022;-80
2023/06/17 11:13:47;;;;;;;9.65;8.55;;;30.80;58.20;;;;;;7375600;19;20027;-80
2023/06/17 11:16:13;;;;;;;;;;;30.70;57.80;;;;;;7378437;19;20780;-79
2023/06/17 11:18:41;;;;;;;10.70;7.07;;;30.70;57.10;;;;;;7376873;19;19934;-82
2023/06/17 11:21:09;;;;;;;12.23;9.00;;;31.00;57.50;;;;;;7377071;19;20022;-82
2023/06/17 11:23:38;;;;;;;8.63;7.07;;;31.30;57.00;;;;;;7375940;19;20228;-80
2023/06/17 11:26:07;;;;;;;13.35;11.13;;;31.30;55.60;;;;;;7381580;19;20487;-82
2023/06/17 11:28:39;;;;;;;9.25;7.45;;;31.30;55.00;;;;;;7378442;19;20022;-80
2023/06/17 11:31:07;;;;;;;11.43;7.70;;;31.40;54.70;;;;;;7372916;19;20019;-82
2023/06/17 11:33:35;;;;;;;13.50;12.05;;;31.30;53.60;;;;;;7380760;19;20041;-80
2023/06/17 11:36:07;;;;;;;33.38;30.35;;;31.20;54.20;;;;;;7379679;19;20530;-81
2023/06/17 11:38:33;;;;;;;9.80;8.93;;;31.30;53.80;;;;;;7377065;19;20018;-82
2023/06/17 11:41:00;;;;;;;29.33;26.80;;;31.50;53.50;;;;;;7374076;19;20368;-81
2023/06/17 11:43:27;;;;;;;8.35;7.25;;;31.60;53.30;;;;;;7373617;19;20801;-80
2023/06/17 11:45:56;;;;;;;7.68;5.40;;;31.40;52.40;;;;;;7375012;19;20015;-79
2023/06/17 11:48:35;;;;;;;7.65;5.68;;;31.60;50.90;;;;;;7371400;19;20060;-80
2023/06/17 11:51:02;;;;;;;12.95;9.88;;;32.10;49.80;;;;;;7366923;19;20193;-79
2023/06/17 11:53:38;;;;;;;10.45;7.90;;;32.00;51.30;;;;;;7372088;19;20025;-80
2023/06/17 11:56:06;;;;;;;10.50;9.10;;;32.20;50.50;;;;;;7376636;19;20368;-80
2023/06/17 11:58:39;;;;;;;9.02;6.53;;;31.90;50.20;;;;;;7370642;19;20026;-81
2023/06/17 12:01:08;;;;;;;13.07;11.65;;;32.20;50.70;;;;;;7376405;19;20010;-78
2023/06/17 12:03:36;;;;;;;10.13;8.57;;;32.30;49.80;;;;;;7375998;19;20018;-78
2023/06/17 12:06:03;;;;;;;13.88;11.48;;;32.40;49.80;;;;;;7375004;19;20082;-79
2023/06/17 12:08:33;;;;;;;13.13;6.40;;;32.70;50.10;;;;;;7377437;19;20015;-81
2023/06/17 12:11:07;;;;;;;;;;;32.20;49.30;;;;;;7372352;19;20010;-82
2023/06/17 12:13:38;;;;;;;13.70;10.43;;;31.80;49.10;;;;;;7371183;19;19935;-81
2023/06/17 12:16:10;;;;;;;8.32;7.05;;;32.10;50.50;;;;;;7378764;19;20025;-80
2023/06/17 12:18:37;;;;;;;29.05;26.42;;;32.20;50.00;;;;;;7376867;19;20018;-81
2023/06/17 12:21:12;;;;;;;13.25;9.70;;;32.60;50.10;;;;;;7379641;19;20045;-81
2023/06/17 12:23:38;;;;;;;12.25;10.13;;;32.60;49.60;;;;;;7376992;19;20030;-81
2023/06/17 12:26:04;;;;;;;10.57;8.27;;;32.80;49.70;;;;;;7374255;19;20018;-81
2023/06/17 12:28:32;;;;;;;10.02;8.20;;;32.80;48.40;;;;;;7372194;19;20498;-81
2023/06/17 12:30:58;;;;;;;9.07;7.03;;;32.90;48.60;;;;;;7373197;19;20651;-82
2023/06/17 12:33:28;;;;;;;8.90;6.93;;;32.80;48.60;;;;;;7369975;19;20003;-81
2023/06/17 12:35:54;;;;;;;18.33;15.80;;;32.80;48.90;;;;;;7371469;19;20019;-83
2023/06/17 12:38:24;;;;;;;10.45;6.47;;;33.10;48.50;;;;;;7369179;19;20019;-83
2023/06/17 12:40:51;;;;;;;9.07;7.63;;;32.70;48.20;;;;;;7374834;19;20036;-81